createdAt,value
2023-05-23T00:01:17.293Z,69.78
2023-05-23T00:04:20.511Z,69.17
2023-05-23T00:07:22.574Z,70.00
2023-05-23T00:10:24.622Z,69.94
2023-05-23T00:13:27.289Z,69.97
2023-05-23T00:16:29.779Z,70.54
2023-05-23T00:19:31.891Z,70.59
2023-05-23T00:22:34.078Z,70.37
2023-05-23T00:25:37.605Z,69.88
2023-05-23T00:28:40.133Z,70.70
2023-05-23T00:31:46.903Z,70.11
2023-05-23T00:34:49.626Z,70.02
2023-05-23T00:37:52.249Z,70.29
2023-05-23T00:40:54.460Z,69.71
2023-05-23T00:43:59.978Z,70.02
2023-05-23T00:47:02.759Z,70.00
2023-05-23T00:50:07.335Z,70.02
2023-05-23T00:53:09.819Z,69.50
2023-05-23T00:56:12.627Z,69.39
2023-05-23T00:59:15.889Z,69.53
2023-05-23T01:02:18.368Z,69.48
2023-05-23T01:05:25.224Z,69.62
2023-05-23T01:08:29.802Z,69.83
2023-05-23T01:11:47.448Z,69.87
2023-05-23T01:15:04.658Z,70.04
2023-05-23T01:18:18.368Z,70.59
2023-05-23T01:21:23.159Z,70.84
2023-05-23T01:24:37.163Z,70.45
2023-05-23T01:28:05.652Z,71.10
2023-05-23T01:31:11.258Z,71.23
2023-05-23T01:34:14.799Z,71.01
2023-05-23T01:37:19.833Z,69.82
2023-05-23T01:40:26.172Z,69.78
2023-05-23T01:43:28.757Z,70.64
2023-05-23T01:46:33.920Z,69.87
2023-05-23T01:49:39.090Z,70.06
2023-05-23T01:52:41.465Z,70.25
2023-05-23T01:55:45.136Z,70.20
2023-05-23T01:58:47.631Z,71.11
2023-05-23T02:01:49.965Z,71.08
2023-05-23T02:04:52.123Z,70.02
2023-05-23T02:07:54.262Z,70.26
2023-05-23T02:10:56.394Z,70.81
2023-05-23T02:13:58.856Z,70.91
2023-05-23T02:17:01.273Z,70.94
2023-05-23T02:20:04.158Z,70.36
2023-05-23T02:23:06.813Z,70.48
2023-05-23T02:26:08.996Z,71.24
2023-05-23T02:29:11.742Z,70.77
2023-05-23T02:32:14.108Z,69.94
2023-05-23T02:35:16.786Z,70.25
2023-05-23T02:38:20.871Z,69.89
2023-05-23T02:41:23.224Z,70.73
2023-05-23T02:44:25.660Z,69.95
2023-05-23T02:47:27.863Z,71.09
2023-05-23T02:50:29.944Z,70.97
2023-05-23T02:53:32.092Z,71.01
2023-05-23T02:56:34.502Z,70.88
2023-05-23T02:59:36.604Z,70.57
2023-05-23T03:02:38.786Z,71.12
2023-05-23T03:05:42.182Z,71.02
2023-05-23T03:08:44.471Z,71.55
2023-05-23T03:11:46.775Z,71.40
2023-05-23T03:14:49.627Z,70.17
2023-05-23T03:17:51.764Z,70.70
2023-05-23T03:20:54.123Z,70.21
2023-05-23T03:23:58.785Z,70.90
2023-05-23T03:27:02.173Z,71.22
2023-05-23T03:30:05.446Z,70.40
2023-05-23T03:33:07.841Z,70.60
2023-05-23T03:36:10.105Z,70.28
2023-05-23T03:39:12.467Z,70.90
2023-05-23T03:42:14.688Z,71.57
2023-05-23T03:45:18.416Z,71.59
2023-05-23T03:48:21.048Z,71.62
2023-05-23T03:51:24.472Z,71.27
2023-05-23T03:54:26.692Z,71.63
2023-05-23T03:57:28.780Z,71.22
2023-05-23T04:00:31.715Z,70.66
2023-05-23T04:03:35.520Z,70.56
2023-05-23T04:06:39.643Z,71.64
2023-05-23T04:09:41.923Z,71.80
2023-05-23T04:12:45.931Z,70.25
2023-05-23T04:15:52.404Z,70.01
2023-05-23T04:18:55.505Z,69.50
2023-05-23T04:21:57.684Z,69.60
2023-05-23T04:24:59.930Z,70.25
2023-05-23T04:28:06.649Z,68.97
2023-05-23T04:31:08.874Z,70.33
2023-05-23T04:34:12.394Z,70.23
2023-05-23T04:37:15.307Z,69.50
2023-05-23T04:40:17.705Z,70.08
2023-05-23T04:43:43.835Z,69.93
2023-05-23T04:46:53.655Z,70.35
2023-05-23T04:50:00.644Z,70.59
2023-05-23T04:53:02.800Z,70.41
2023-05-23T04:56:05.388Z,70.29
2023-05-23T04:59:11.657Z,70.18
2023-05-23T05:02:14.054Z,70.98
2023-05-23T05:05:16.337Z,70.35
2023-05-23T05:08:20.066Z,69.59
2023-05-23T05:11:22.365Z,68.80
2023-05-23T05:14:26.767Z,68.35
2023-05-23T05:17:30.238Z,68.92
2023-05-23T05:20:44.412Z,68.28
2023-05-23T05:23:46.816Z,69.04
2023-05-23T05:26:51.301Z,68.58
2023-05-23T05:29:53.920Z,69.37
2023-05-23T05:32:58.341Z,68.94
2023-05-23T05:36:00.708Z,69.25
2023-05-23T05:39:02.889Z,68.69
2023-05-23T05:42:05.633Z,69.18
2023-05-23T05:45:08.137Z,68.93
2023-05-23T05:48:12.199Z,68.31
2023-05-23T05:51:14.449Z,69.49
2023-05-23T05:54:19.381Z,69.39
2023-05-23T05:57:21.623Z,68.81
2023-05-23T06:00:24.171Z,67.67
2023-05-23T06:03:28.813Z,67.00
2023-05-23T06:06:32.420Z,67.66
2023-05-23T06:09:34.474Z,66.94
2023-05-23T06:12:36.901Z,67.39
2023-05-23T06:15:39.125Z,67.54
2023-05-23T06:18:41.598Z,67.39
2023-05-23T06:21:44.433Z,67.20
2023-05-23T06:24:47.274Z,67.52
2023-05-23T06:27:50.198Z,67.70
2023-05-23T06:30:52.359Z,67.49
2023-05-23T06:33:54.674Z,67.21
2023-05-23T06:36:56.728Z,67.51
2023-05-23T06:39:58.985Z,67.64
2023-05-23T06:43:01.267Z,67.51
2023-05-23T06:46:46.804Z,67.49
2023-05-23T06:49:48.813Z,67.75
2023-05-23T06:52:50.958Z,66.51
2023-05-23T06:55:53.132Z,66.85
2023-05-23T06:58:56.991Z,65.67
2023-05-23T07:01:59.179Z,66.22
2023-05-23T07:05:02.241Z,66.69
2023-05-23T07:08:22.040Z,65.53
2023-05-23T07:15:03.389Z,65.13
2023-05-23T07:18:07.140Z,64.35
2023-05-23T07:21:10.088Z,64.96
2023-05-23T07:24:13.792Z,64.80
2023-05-23T07:27:16.088Z,64.42
2023-05-23T07:30:20.464Z,64.39
2023-05-23T07:33:23.061Z,63.72
2023-05-23T07:36:45.881Z,63.43
2023-05-23T07:39:48.873Z,63.06
2023-05-23T07:42:51.158Z,63.30
2023-05-23T07:45:53.950Z,62.95
2023-05-23T07:48:56.989Z,63.80
2023-05-23T07:51:59.213Z,63.53
2023-05-23T07:55:02.030Z,64.38
2023-05-23T07:58:04.352Z,64.46
2023-05-23T08:01:08.198Z,63.95
2023-05-23T08:04:30.196Z,63.83
2023-05-23T08:07:32.388Z,64.02
2023-05-23T08:10:40.404Z,63.78
2023-05-23T08:13:47.758Z,62.77
2023-05-23T08:17:22.534Z,63.88
2023-05-23T08:20:31.261Z,63.53
2023-05-23T08:23:34.410Z,62.94
2023-05-23T08:26:38.016Z,62.78
2023-05-23T08:29:43.009Z,63.03
2023-05-23T08:32:56.227Z,63.20
2023-05-23T08:35:59.590Z,63.33
2023-05-23T08:39:03.570Z,63.26
2023-05-23T08:42:10.538Z,61.10
2023-05-23T08:45:12.998Z,62.50
2023-05-23T08:48:21.856Z,63.15
2023-05-23T08:51:28.006Z,63.55
2023-05-23T08:54:34.329Z,62.81
2023-05-23T08:57:37.078Z,63.37
2023-05-23T09:00:56.860Z,62.65
2023-05-23T09:04:05.078Z,62.43
2023-05-23T09:07:26.156Z,62.80
2023-05-23T09:10:30.064Z,63.09
2023-05-23T09:13:34.416Z,63.42
2023-05-23T09:16:41.861Z,62.56
2023-05-23T09:19:48.605Z,63.30
2023-05-23T09:23:08.989Z,63.27
2023-05-23T09:26:16.272Z,63.45
2023-05-23T09:29:21.801Z,63.58
2023-05-23T09:32:24.046Z,63.42
2023-05-23T09:35:31.350Z,64.02
2023-05-23T09:38:41.873Z,64.35
2023-05-23T09:41:44.763Z,64.35
2023-05-23T09:44:50.627Z,64.61
2023-05-23T09:47:53.934Z,64.59
2023-05-23T09:50:56.135Z,64.59
2023-05-23T09:53:58.486Z,65.14
2023-05-23T09:57:02.853Z,64.73
2023-05-23T10:00:07.689Z,64.70
2023-05-23T10:03:17.571Z,64.80
2023-05-23T10:06:29.871Z,65.31
2023-05-23T10:09:36.658Z,65.17
2023-05-23T10:12:50.232Z,65.84
2023-05-23T10:16:12.899Z,65.47
2023-05-23T10:19:49.679Z,65.75
2023-05-23T10:22:52.650Z,65.59
2023-05-23T10:25:56.598Z,65.84
2023-05-23T10:29:00.881Z,65.99
2023-05-23T10:32:05.831Z,65.60
2023-05-23T10:35:47.008Z,65.59
2023-05-23T10:39:04.587Z,65.30
2023-05-23T10:42:19.719Z,65.56
2023-05-23T10:45:23.206Z,65.46
2023-05-23T10:48:36.457Z,65.02
2023-05-23T10:51:41.434Z,65.22
2023-05-23T10:54:53.080Z,65.18
2023-05-23T10:58:21.834Z,65.82
2023-05-23T11:01:24.573Z,65.54
2023-05-23T11:04:28.397Z,65.24
2023-05-23T11:07:32.540Z,64.67
2023-05-23T11:11:01.947Z,64.99
2023-05-23T11:14:04.401Z,64.12
2023-05-23T11:17:12.401Z,64.32
2023-05-23T11:20:17.185Z,63.74
2023-05-23T11:23:20.453Z,63.46
2023-05-23T11:26:32.769Z,63.86
2023-05-23T11:29:35.000Z,62.78
2023-05-23T11:32:38.281Z,62.68
2023-05-23T11:35:41.918Z,62.33
2023-05-23T11:38:44.298Z,61.74
2023-05-23T11:42:11.033Z,61.39
2023-05-23T11:45:13.080Z,61.58
2023-05-23T11:48:17.084Z,61.46
2023-05-23T11:51:20.565Z,60.70
2023-05-23T11:54:26.876Z,60.94
2023-05-23T11:57:29.391Z,60.91
2023-05-23T12:00:31.941Z,60.24
2023-05-23T12:03:53.125Z,61.18
2023-05-23T12:06:56.741Z,60.95
2023-05-23T12:09:59.241Z,61.63
2023-05-23T12:13:01.787Z,61.71
2023-05-23T12:16:05.163Z,62.08
2023-05-23T12:19:10.028Z,60.94
2023-05-23T12:22:12.154Z,61.20
2023-05-23T12:25:14.269Z,60.33
2023-05-23T12:28:16.420Z,58.02
2023-05-23T12:31:21.805Z,59.40
2023-05-23T12:34:24.108Z,59.54
2023-05-23T12:37:27.393Z,59.76
2023-05-23T12:40:29.437Z,57.64
2023-05-23T12:43:31.463Z,59.87
2023-05-23T12:46:33.457Z,59.84
2023-05-23T12:49:35.715Z,58.54
2023-05-23T12:52:38.100Z,58.99
2023-05-23T12:55:40.749Z,58.55
2023-05-23T12:58:43.746Z,58.32
2023-05-23T13:01:45.904Z,59.12
2023-05-23T13:04:48.103Z,59.29
2023-05-23T13:07:50.806Z,59.67
2023-05-23T13:10:54.313Z,59.96
2023-05-23T13:13:56.434Z,59.72
2023-05-23T13:16:59.008Z,59.59
2023-05-23T13:20:01.688Z,59.46
2023-05-23T13:23:04.256Z,60.71
2023-05-23T13:26:07.830Z,61.07
2023-05-23T13:29:10.027Z,60.87
2023-05-23T13:32:13.224Z,60.24
2023-05-23T13:35:16.143Z,60.92
2023-05-23T13:38:21.370Z,60.59
2023-05-23T13:41:23.544Z,60.36
2023-05-23T13:44:26.217Z,60.80
2023-05-23T13:47:28.319Z,60.25
2023-05-23T13:50:30.614Z,59.99
2023-05-23T13:53:34.181Z,60.21
2023-05-23T13:56:38.554Z,60.40
2023-05-23T13:59:40.700Z,60.99
2023-05-23T14:02:43.307Z,60.88
2023-05-23T14:05:45.756Z,61.17
2023-05-23T14:08:48.017Z,60.80
2023-05-23T14:11:52.340Z,61.29
2023-05-23T14:14:54.578Z,60.51
2023-05-23T14:17:57.274Z,60.15
2023-05-23T14:20:59.516Z,60.20
2023-05-23T14:24:01.621Z,60.52
2023-05-23T14:27:04.326Z,60.12
2023-05-23T14:30:07.813Z,59.30
2023-05-23T14:33:11.219Z,59.76
2023-05-23T14:36:13.552Z,60.14
2023-05-23T14:39:21.091Z,60.01
2023-05-23T14:42:23.193Z,59.92
2023-05-23T14:45:25.352Z,59.37
2023-05-23T14:48:27.501Z,59.59
2023-05-23T14:51:44.935Z,59.56
2023-05-23T14:54:48.674Z,59.29
2023-05-23T14:57:51.216Z,59.07
2023-05-23T15:00:53.554Z,59.13
2023-05-23T15:03:55.969Z,59.31
2023-05-23T15:06:58.277Z,59.83
2023-05-23T15:10:00.402Z,59.71
2023-05-23T15:13:04.069Z,58.97
2023-05-23T15:16:07.400Z,59.75
2023-05-23T15:19:45.234Z,59.00
2023-05-23T15:22:47.435Z,59.49
2023-05-23T15:25:50.314Z,59.60
2023-05-23T15:28:52.540Z,59.11
2023-05-23T15:31:54.874Z,60.32
2023-05-23T15:34:57.006Z,59.80
2023-05-23T15:37:59.394Z,60.94
2023-05-23T15:41:01.535Z,60.61
2023-05-23T15:44:03.662Z,61.18
2023-05-23T15:47:05.942Z,61.59
2023-05-23T15:50:08.408Z,61.89
2023-05-23T15:53:10.702Z,61.84
2023-05-23T15:56:13.037Z,62.25
2023-05-23T15:59:15.224Z,62.71
2023-05-23T16:02:19.144Z,62.30
2023-05-23T16:05:21.312Z,63.00
2023-05-23T16:08:23.305Z,63.00
2023-05-23T16:11:25.503Z,64.07
2023-05-23T16:14:27.681Z,63.92
2023-05-23T16:17:30.069Z,64.16
2023-05-23T16:20:32.820Z,64.31
2023-05-23T16:23:35.582Z,65.06
2023-05-23T16:26:39.456Z,65.00
2023-05-23T16:29:41.588Z,64.80
2023-05-23T16:32:43.858Z,65.23
2023-05-23T16:35:46.032Z,64.93
2023-05-23T16:38:48.086Z,65.90
2023-05-23T16:41:50.108Z,65.91
2023-05-23T16:44:53.327Z,65.78
2023-05-23T16:47:55.493Z,66.07
2023-05-23T16:50:58.154Z,66.00
2023-05-23T16:54:00.329Z,66.70
2023-05-23T16:57:02.607Z,66.85
2023-05-23T17:00:05.707Z,66.67
2023-05-23T17:03:07.901Z,66.68
2023-05-23T17:06:10.107Z,67.37
2023-05-23T17:09:12.582Z,67.62
2023-05-23T17:12:14.695Z,67.79
2023-05-23T17:15:16.988Z,68.17
2023-05-23T17:18:19.191Z,67.92
2023-05-23T17:21:21.513Z,68.28
2023-05-23T17:24:23.546Z,68.34
2023-05-23T17:27:25.661Z,68.54
2023-05-23T17:30:28.445Z,68.21
2023-05-23T17:33:30.556Z,68.14
2023-05-23T17:36:34.285Z,68.41
2023-05-23T17:39:36.590Z,69.15
2023-05-23T17:42:42.578Z,68.88
2023-05-23T17:45:44.789Z,68.93
2023-05-23T17:48:47.999Z,68.72
2023-05-23T17:51:50.707Z,69.70
2023-05-23T17:54:54.315Z,69.47
2023-05-23T17:57:56.415Z,69.60
2023-05-23T18:00:58.499Z,69.54
2023-05-23T18:04:01.480Z,69.72
2023-05-23T18:07:03.685Z,69.55
2023-05-23T18:10:08.845Z,69.99
2023-05-23T18:13:11.043Z,70.17
2023-05-23T18:16:13.343Z,70.95
2023-05-23T18:19:15.529Z,70.28
2023-05-23T18:22:19.938Z,71.00
2023-05-23T18:25:27.511Z,71.20
2023-05-23T18:28:31.899Z,71.06
2023-05-23T18:31:34.056Z,71.04
2023-05-23T18:34:36.122Z,71.37
2023-05-23T18:37:38.777Z,71.62
2023-05-23T18:40:41.020Z,71.48
2023-05-23T18:43:43.502Z,71.90
2023-05-23T18:46:46.096Z,71.79
2023-05-23T18:49:50.213Z,72.52
2023-05-23T18:52:52.541Z,72.47
2023-05-23T18:55:54.605Z,72.90
2023-05-23T18:58:56.973Z,72.02
2023-05-23T19:02:00.304Z,73.01
2023-05-23T19:05:02.712Z,72.86
2023-05-23T19:08:05.645Z,72.98
2023-05-23T19:11:07.896Z,72.75
2023-05-23T19:14:09.991Z,73.18
2023-05-23T19:17:12.082Z,73.38
2023-05-23T19:20:18.552Z,73.00
2023-05-23T19:23:20.959Z,73.05
2023-05-23T19:26:23.310Z,73.70
2023-05-23T19:29:26.786Z,73.65
2023-05-23T19:32:29.352Z,73.18
2023-05-23T19:35:31.742Z,73.61
2023-05-23T19:38:34.033Z,73.34
2023-05-23T19:41:36.163Z,73.72
2023-05-23T19:44:38.197Z,73.83
2023-05-23T19:47:40.848Z,73.26
2023-05-23T19:50:43.711Z,73.30
2023-05-23T19:53:46.575Z,73.35
2023-05-23T19:56:48.981Z,74.29
2023-05-23T19:59:51.185Z,73.88
2023-05-23T20:02:53.329Z,73.49
2023-05-23T20:05:55.359Z,74.02
2023-05-23T20:08:57.406Z,73.71
2023-05-23T20:12:00.169Z,74.17
2023-05-23T20:15:03.013Z,74.08
2023-05-23T20:18:06.010Z,74.26
2023-05-23T20:21:08.552Z,74.51
2023-05-23T20:24:12.319Z,73.72
2023-05-23T20:27:14.456Z,74.21
2023-05-23T20:30:16.808Z,73.76
2023-05-23T20:33:19.386Z,73.84
2023-05-23T20:36:21.970Z,74.14
2023-05-23T20:39:27.019Z,73.61
2023-05-23T20:42:31.175Z,73.98
2023-05-23T20:45:33.754Z,73.95
2023-05-23T20:48:36.342Z,74.29
2023-05-23T20:51:38.765Z,74.64
2023-05-23T20:54:42.739Z,74.53
2023-05-23T20:57:44.976Z,74.97
2023-05-23T21:00:47.691Z,74.20
2023-05-23T21:03:50.277Z,74.17
2023-05-23T21:06:53.066Z,75.84
2023-05-23T21:09:55.073Z,75.63
2023-05-23T21:12:57.418Z,75.13
2023-05-23T21:15:59.680Z,74.54
2023-05-23T21:19:01.881Z,75.23
2023-05-23T21:22:04.225Z,74.36
2023-05-23T21:25:06.650Z,73.98
2023-05-23T21:28:08.751Z,74.94
2023-05-23T21:31:12.878Z,73.86
2023-05-23T21:34:23.931Z,74.52
2023-05-23T21:37:26.788Z,73.90
2023-05-23T21:40:28.889Z,73.76
2023-05-23T21:43:31.000Z,74.47
2023-05-23T21:46:33.282Z,74.77
2023-05-23T21:49:35.631Z,75.13
2023-05-23T21:52:37.676Z,74.71
2023-05-23T21:55:39.663Z,74.41
2023-05-23T21:58:41.821Z,74.07
2023-05-23T22:01:44.122Z,74.39
2023-05-23T22:04:46.512Z,74.89
2023-05-23T22:07:48.585Z,73.90
2023-05-23T22:10:50.538Z,74.72
2023-05-23T22:13:52.662Z,74.79
2023-05-23T22:16:56.255Z,74.85
2023-05-23T22:19:58.729Z,74.76
2023-05-23T22:23:02.356Z,74.16
2023-05-23T22:26:04.765Z,74.39
2023-05-23T22:29:07.287Z,74.85
2023-05-23T22:32:09.466Z,75.03
2023-05-23T22:35:11.683Z,74.47
2023-05-23T22:38:14.776Z,74.22
2023-05-23T22:41:17.282Z,74.50
2023-05-23T22:44:19.319Z,74.56
2023-05-23T22:47:21.342Z,74.52
2023-05-23T22:50:23.694Z,74.66
2023-05-23T22:53:25.744Z,74.54
2023-05-23T22:56:27.831Z,74.63
2023-05-23T22:59:31.087Z,74.35
2023-05-23T23:02:34.646Z,75.00
2023-05-23T23:05:37.088Z,74.94
2023-05-23T23:08:39.070Z,74.31
2023-05-23T23:11:41.216Z,74.71
2023-05-23T23:14:43.298Z,74.37
2023-05-23T23:17:45.844Z,74.20
2023-05-23T23:20:48.549Z,75.05
2023-05-23T23:23:50.738Z,75.46
2023-05-23T23:26:52.829Z,76.30
2023-05-23T23:29:54.845Z,76.65
2023-05-23T23:32:56.917Z,75.90
2023-05-23T23:35:59.051Z,75.51
2023-05-23T23:39:01.177Z,75.40
2023-05-23T23:42:03.691Z,74.91
2023-05-23T23:45:06.317Z,75.03
2023-05-23T23:48:08.516Z,74.28
2023-05-23T23:51:11.029Z,74.38
2023-05-23T23:54:13.026Z,74.43
2023-05-23T23:57:15.107Z,73.82
